createdAt,value
2019-03-30T00:00:02.571Z,83.32
2019-03-30T00:01:02.598Z,83.56
2019-03-30T00:02:02.553Z,82.54
2019-03-30T00:03:02.537Z,83.50
2019-03-30T00:04:02.519Z,85.15
2019-03-30T00:05:02.533Z,86.04
2019-03-30T00:06:02.537Z,84.29
2019-03-30T00:07:02.486Z,84.29
2019-03-30T00:08:02.489Z,85.63
2019-03-30T00:09:02.482Z,85.15
2019-03-30T00:10:02.468Z,85.46
2019-03-30T00:11:02.481Z,86.29
2019-03-30T00:12:02.444Z,86.15
2019-03-30T00:13:02.433Z,84.77
2019-03-30T00:14:02.424Z,84.66
2019-03-30T00:15:02.414Z,84.91
2019-03-30T00:16:02.434Z,85.83
2019-03-30T00:17:02.389Z,85.63
2019-03-30T00:18:02.384Z,85.94
2019-03-30T00:19:02.375Z,86.10
2019-03-30T00:20:02.368Z,85.52
2019-03-30T00:21:02.380Z,85.36
2019-03-30T00:22:02.347Z,86.49
2019-03-30T00:23:02.333Z,86.43
2019-03-30T00:24:02.326Z,87.46
2019-03-30T00:25:02.309Z,87.35
2019-03-30T00:26:02.329Z,88.43
2019-03-30T00:27:02.289Z,88.64
2019-03-30T00:28:02.278Z,89.09
2019-03-30T00:29:02.271Z,89.09
2019-03-30T00:30:02.261Z,89.81
2019-03-30T00:31:02.278Z,90.84
2019-03-30T00:32:02.260Z,90.33
2019-03-30T00:33:02.221Z,89.46
2019-03-30T00:34:02.217Z,89.15
2019-03-30T00:35:02.200Z,88.74
2019-03-30T00:36:02.218Z,88.22
2019-03-30T00:37:02.176Z,86.47
2019-03-30T00:38:02.184Z,87.60
2019-03-30T00:39:02.161Z,87.35
2019-03-30T00:40:02.147Z,85.77
2019-03-30T00:41:02.170Z,85.05
2019-03-30T00:42:02.124Z,86.08
2019-03-30T00:43:02.138Z,85.46
2019-03-30T00:44:02.110Z,84.08
2019-03-30T00:45:02.093Z,84.14
2019-03-30T00:46:02.108Z,82.87
2019-03-30T00:47:02.074Z,82.67
2019-03-30T00:48:02.061Z,83.49
2019-03-30T00:49:02.059Z,81.57
2019-03-30T00:50:02.044Z,82.81
2019-03-30T00:51:02.055Z,83.90
2019-03-30T00:52:02.020Z,83.18
2019-03-30T00:53:02.009Z,83.18
2019-03-30T00:54:02.001Z,83.18
2019-03-30T00:55:01.989Z,82.60
2019-03-30T00:56:02.005Z,84.25
2019-03-30T00:57:01.965Z,83.73
2019-03-30T00:58:01.954Z,84.97
2019-03-30T00:59:01.943Z,83.87
2019-03-30T01:00:01.941Z,85.01
2019-03-30T01:01:01.950Z,84.59
2019-03-30T01:02:01.919Z,85.42
2019-03-30T01:03:01.903Z,84.97
2019-03-30T01:04:01.890Z,85.07
2019-03-30T01:05:01.887Z,84.87
2019-03-30T01:06:01.904Z,84.25
2019-03-30T01:07:01.871Z,84.35
2019-03-30T01:08:01.852Z,84.49
2019-03-30T01:09:01.839Z,84.35
2019-03-30T01:10:01.828Z,84.25
2019-03-30T01:11:01.853Z,84.25
2019-03-30T01:12:01.803Z,83.90
2019-03-30T01:13:01.806Z,83.90
2019-03-30T01:14:01.787Z,83.18
2019-03-30T01:15:01.790Z,83.90
2019-03-30T01:16:01.793Z,83.39
2019-03-30T01:17:01.758Z,83.70
2019-03-30T01:18:01.747Z,82.81
2019-03-30T01:19:01.740Z,84.25
2019-03-30T01:20:03.276Z,83.22
2019-03-30T01:21:01.739Z,84.35
2019-03-30T01:22:01.706Z,84.14
2019-03-30T01:23:01.695Z,84.35
2019-03-30T01:24:01.687Z,84.45
2019-03-30T01:25:01.708Z,84.14
2019-03-30T01:26:01.684Z,84.05
2019-03-30T01:27:01.648Z,84.35
2019-03-30T01:28:01.640Z,84.14
2019-03-30T01:29:01.632Z,83.94
2019-03-30T01:30:01.617Z,83.73
2019-03-30T01:31:01.673Z,82.91
2019-03-30T01:32:01.595Z,84.25
2019-03-30T01:33:01.581Z,83.94
2019-03-30T01:34:01.571Z,84.56
2019-03-30T01:35:01.586Z,84.35
2019-03-30T01:36:01.579Z,84.66
2019-03-30T01:37:01.540Z,84.45
2019-03-30T01:38:01.533Z,84.45
2019-03-30T01:39:01.521Z,85.07
2019-03-30T01:40:01.510Z,84.80
2019-03-30T01:41:01.535Z,85.11
2019-03-30T01:42:01.484Z,84.70
2019-03-30T01:43:01.509Z,85.36
2019-03-30T01:44:01.465Z,85.67
2019-03-30T01:45:01.459Z,85.46
2019-03-30T01:46:01.472Z,85.77
2019-03-30T01:47:01.439Z,85.73
2019-03-30T01:48:01.422Z,85.73
2019-03-30T01:49:01.408Z,85.42
2019-03-30T01:50:01.401Z,85.42
2019-03-30T01:51:01.422Z,84.80
2019-03-30T01:52:01.380Z,85.42
2019-03-30T01:53:01.373Z,85.01
2019-03-30T01:54:01.361Z,85.11
2019-03-30T01:55:01.355Z,84.91
2019-03-30T01:56:01.365Z,85.01
2019-03-30T01:57:01.339Z,84.80
2019-03-30T01:58:01.317Z,85.36
2019-03-30T01:59:01.303Z,85.15
2019-03-30T02:00:01.302Z,85.46
2019-03-30T02:01:01.310Z,85.97
2019-03-30T02:02:01.276Z,85.25
2019-03-30T02:03:01.267Z,85.87
2019-03-30T02:04:01.253Z,86.08
2019-03-30T02:05:01.244Z,86.53
2019-03-30T02:06:01.277Z,86.12
2019-03-30T02:07:01.219Z,86.74
2019-03-30T02:08:01.210Z,86.53
2019-03-30T02:09:01.215Z,86.63
2019-03-30T02:10:01.186Z,85.91
2019-03-30T02:11:01.177Z,86.22
2019-03-30T02:12:01.196Z,86.53
2019-03-30T02:13:01.163Z,86.32
2019-03-30T02:14:01.145Z,86.32
2019-03-30T02:15:01.151Z,86.39
2019-03-30T02:16:01.129Z,86.18
2019-03-30T02:17:01.151Z,86.22
2019-03-30T02:18:01.104Z,86.43
2019-03-30T02:19:01.099Z,86.57
2019-03-30T02:20:01.089Z,86.63
2019-03-30T02:21:01.072Z,86.22
2019-03-30T02:22:01.096Z,86.47
2019-03-30T02:23:01.047Z,86.53
2019-03-30T02:24:01.045Z,86.68
2019-03-30T02:25:01.044Z,86.47
2019-03-30T02:26:01.018Z,86.57
2019-03-30T02:27:01.038Z,86.98
2019-03-30T02:28:00.996Z,87.19
2019-03-30T02:29:00.988Z,87.71
2019-03-30T02:30:00.988Z,87.02
2019-03-30T02:31:00.968Z,87.50
2019-03-30T02:32:00.983Z,86.78
2019-03-30T02:33:00.943Z,87.40
2019-03-30T02:34:00.940Z,87.40
2019-03-30T02:35:00.926Z,86.78
2019-03-30T02:36:00.922Z,87.60
2019-03-30T02:37:00.933Z,87.50
2019-03-30T02:38:00.894Z,87.50
2019-03-30T02:39:00.887Z,87.40
2019-03-30T02:40:00.870Z,87.34
2019-03-30T02:41:00.885Z,87.13
2019-03-30T02:42:00.880Z,87.23
2019-03-30T02:43:00.844Z,87.65
2019-03-30T02:44:00.834Z,88.26
2019-03-30T02:45:00.820Z,88.57
2019-03-30T02:46:00.809Z,87.85
2019-03-30T02:47:00.824Z,88.06
2019-03-30T02:48:00.835Z,87.44
2019-03-30T02:49:00.788Z,87.23
2019-03-30T02:50:00.781Z,87.23
2019-03-30T02:51:00.771Z,87.23
2019-03-30T02:52:00.770Z,87.54
2019-03-30T02:53:00.739Z,86.57
2019-03-30T02:54:00.726Z,86.61
2019-03-30T02:55:00.752Z,86.68
2019-03-30T02:56:00.710Z,86.68
2019-03-30T02:57:00.743Z,86.47
2019-03-30T02:58:00.678Z,86.32
2019-03-30T02:59:00.670Z,86.22
2019-03-30T03:00:00.656Z,86.12
2019-03-30T03:01:00.647Z,85.91
2019-03-30T03:02:00.659Z,85.91
2019-03-30T03:03:00.636Z,85.60
2019-03-30T03:04:00.612Z,85.50
2019-03-30T03:05:00.610Z,85.19
2019-03-30T03:06:00.591Z,86.12
2019-03-30T03:07:00.615Z,85.50
2019-03-30T03:08:00.592Z,86.36
2019-03-30T03:09:00.563Z,86.16
2019-03-30T03:10:00.561Z,86.36
2019-03-30T03:11:00.537Z,86.16
2019-03-30T03:12:00.560Z,86.82
2019-03-30T03:13:00.520Z,86.92
2019-03-30T03:14:00.517Z,87.54
2019-03-30T03:15:00.633Z,87.44
2019-03-30T03:16:00.493Z,87.58
2019-03-30T03:17:00.500Z,87.02
2019-03-30T03:18:00.482Z,86.71
2019-03-30T03:19:00.456Z,86.05
2019-03-30T03:20:00.500Z,85.85
2019-03-30T03:21:08.021Z,85.54
2019-03-30T03:22:01.457Z,85.33
2019-03-30T03:23:00.408Z,85.85
2019-03-30T03:24:00.400Z,86.20
2019-03-30T03:25:00.632Z,86.26
2019-03-30T03:26:00.380Z,86.30
2019-03-30T03:27:00.391Z,86.41
2019-03-30T03:28:00.370Z,86.61
2019-03-30T03:29:00.348Z,86.20
2019-03-30T03:30:00.837Z,86.20
2019-03-30T03:31:00.329Z,86.71
2019-03-30T03:32:00.359Z,87.02
2019-03-30T03:33:00.310Z,87.85
2019-03-30T03:34:00.321Z,87.44
2019-03-30T03:35:00.790Z,87.34
2019-03-30T03:36:00.269Z,86.82
2019-03-30T03:37:00.282Z,86.30
2019-03-30T03:38:00.246Z,86.71
2019-03-30T03:39:00.243Z,86.61
2019-03-30T03:40:00.550Z,86.92
2019-03-30T03:41:00.218Z,86.41
2019-03-30T03:42:00.281Z,86.71
2019-03-30T03:43:00.213Z,86.71
2019-03-30T03:44:00.187Z,87.54
2019-03-30T03:45:00.253Z,86.61
2019-03-30T03:46:00.166Z,86.30
2019-03-30T03:47:00.187Z,86.20
2019-03-30T03:48:00.153Z,86.10
2019-03-30T03:49:00.140Z,85.99
2019-03-30T03:50:00.405Z,85.99
2019-03-30T03:51:00.127Z,85.64
2019-03-30T03:52:00.143Z,85.54
2019-03-30T03:53:00.089Z,85.95
2019-03-30T03:54:00.093Z,85.64
2019-03-30T03:55:00.149Z,85.33
2019-03-30T03:56:00.070Z,84.72
2019-03-30T03:57:00.080Z,85.23
2019-03-30T03:58:00.041Z,85.44
2019-03-30T03:59:00.032Z,85.23
2019-03-30T04:00:00.025Z,84.88
2019-03-30T04:01:00.012Z,84.81
2019-03-30T04:02:00.041Z,85.33
2019-03-30T04:02:59.992Z,85.54
2019-03-30T04:03:59.971Z,85.44
2019-03-30T04:04:59.973Z,85.54
2019-03-30T04:05:59.959Z,85.44
2019-03-30T04:07:00.050Z,85.54
2019-03-30T04:07:59.953Z,85.33
2019-03-30T04:08:59.926Z,84.81
2019-03-30T04:09:59.910Z,84.81
2019-03-30T04:10:59.904Z,85.85
2019-03-30T04:11:59.925Z,85.95
2019-03-30T04:12:59.877Z,85.54
2019-03-30T04:13:59.868Z,85.99
2019-03-30T04:14:59.856Z,86.05
2019-03-30T04:15:59.857Z,86.05
2019-03-30T04:16:59.863Z,86.05
2019-03-30T04:17:59.826Z,85.95
2019-03-30T04:18:59.816Z,85.85
2019-03-30T04:19:59.814Z,86.10
2019-03-30T04:20:59.814Z,85.95
2019-03-30T04:21:59.812Z,86.36
2019-03-30T04:22:59.774Z,85.95
2019-03-30T04:23:59.760Z,86.30
2019-03-30T04:24:59.755Z,86.20
2019-03-30T04:25:59.741Z,86.51
2019-03-30T04:26:59.753Z,86.71
2019-03-30T04:27:59.722Z,86.41
2019-03-30T04:28:59.710Z,86.71
2019-03-30T04:29:59.700Z,86.71
2019-03-30T04:30:59.686Z,86.76
2019-03-30T04:31:59.711Z,86.51
2019-03-30T04:32:59.665Z,85.89
2019-03-30T04:33:59.661Z,86.20
2019-03-30T04:34:59.646Z,86.10
2019-03-30T04:35:59.658Z,85.58
2019-03-30T04:36:59.624Z,85.47
2019-03-30T04:37:59.641Z,85.78
2019-03-30T04:38:59.600Z,85.78
2019-03-30T04:39:59.594Z,85.58
2019-03-30T04:40:59.579Z,85.58
2019-03-30T04:41:59.566Z,85.89
2019-03-30T04:42:59.580Z,85.52
2019-03-30T04:43:59.548Z,86.13
2019-03-30T04:44:59.538Z,86.44
2019-03-30T04:45:59.530Z,85.62
2019-03-30T04:46:59.518Z,86.10
2019-03-30T04:47:59.533Z,86.13
2019-03-30T04:48:59.498Z,86.03
2019-03-30T04:49:59.483Z,85.93
2019-03-30T04:50:59.474Z,85.93
2019-03-30T04:51:59.459Z,85.93
2019-03-30T04:52:59.479Z,85.21
2019-03-30T04:53:59.443Z,85.31
2019-03-30T04:54:59.432Z,85.21
2019-03-30T04:55:59.419Z,85.47
2019-03-30T04:56:59.407Z,85.21
2019-03-30T04:57:59.427Z,85.62
2019-03-30T04:58:59.469Z,85.41
2019-03-30T04:59:59.380Z,86.03
2019-03-30T05:00:59.368Z,86.03
2019-03-30T05:01:59.361Z,86.03
2019-03-30T05:02:59.376Z,85.62
2019-03-30T05:03:59.336Z,85.72
2019-03-30T05:04:59.330Z,85.41
2019-03-30T05:05:59.318Z,86.24
2019-03-30T05:06:59.309Z,85.83
2019-03-30T05:07:59.324Z,85.72
2019-03-30T05:08:59.287Z,86.03
2019-03-30T05:09:59.282Z,85.72
2019-03-30T05:10:59.435Z,85.66
2019-03-30T05:11:59.254Z,85.72
2019-03-30T05:12:59.271Z,85.62
2019-03-30T05:13:59.232Z,85.21
2019-03-30T05:14:59.226Z,85.41
2019-03-30T05:15:59.227Z,85.31
2019-03-30T05:16:59.207Z,85.21
2019-03-30T05:17:59.221Z,85.00
2019-03-30T05:18:59.179Z,84.55
2019-03-30T05:19:59.167Z,83.93
2019-03-30T05:20:59.168Z,84.44
2019-03-30T05:22:11.380Z,83.93
2019-03-30T05:23:00.165Z,84.23
2019-03-30T05:23:59.128Z,84.13
2019-03-30T05:24:59.118Z,84.23
2019-03-30T05:25:59.105Z,83.93
2019-03-30T05:26:59.101Z,83.93
2019-03-30T05:27:59.120Z,83.93
2019-03-30T05:28:59.083Z,84.03
2019-03-30T05:29:59.067Z,83.93
2019-03-30T05:30:59.052Z,83.31
2019-03-30T05:31:59.055Z,83.41
2019-03-30T05:33:05.466Z,83.41
2019-03-30T05:34:00.025Z,83.00
2019-03-30T05:34:59.008Z,83.06
2019-03-30T05:35:59.000Z,82.20
2019-03-30T05:36:58.988Z,80.16
2019-03-30T05:38:01.415Z,79.20
2019-03-30T05:38:58.969Z,77.48
2019-03-30T05:39:58.959Z,77.07
2019-03-30T05:40:58.946Z,76.31
2019-03-30T05:41:58.938Z,75.15
2019-03-30T05:42:58.959Z,74.74
2019-03-30T05:43:58.911Z,74.63
2019-03-30T05:44:58.904Z,74.29
2019-03-30T05:45:58.887Z,73.88
2019-03-30T05:46:58.892Z,73.57
2019-03-30T05:47:58.899Z,73.13
2019-03-30T05:48:58.866Z,72.92
2019-03-30T05:49:58.857Z,72.27
2019-03-30T05:50:58.845Z,72.20
2019-03-30T05:51:58.827Z,72.27
2019-03-30T05:52:58.841Z,72.06
2019-03-30T05:53:58.806Z,71.42
2019-03-30T05:54:58.801Z,70.39
2019-03-30T05:55:58.783Z,70.67
2019-03-30T05:56:58.784Z,70.80
2019-03-30T05:57:58.789Z,70.36
2019-03-30T05:58:58.754Z,70.56
2019-03-30T05:59:58.744Z,70.46
2019-03-30T06:00:58.746Z,70.05
2019-03-30T06:01:58.729Z,69.61
2019-03-30T06:02:58.736Z,69.30
2019-03-30T06:03:58.735Z,69.40
2019-03-30T06:04:58.932Z,68.68
2019-03-30T06:05:58.685Z,67.97
2019-03-30T06:06:58.747Z,68.14
2019-03-30T06:07:58.767Z,68.24
2019-03-30T06:08:58.843Z,69.17
2019-03-30T06:09:58.811Z,68.45
2019-03-30T06:10:58.751Z,68.04
2019-03-30T06:11:58.885Z,68.55
2019-03-30T06:12:58.916Z,68.01
2019-03-30T06:13:58.935Z,68.73
2019-03-30T06:14:58.886Z,67.60
2019-03-30T06:15:58.727Z,67.46
2019-03-30T06:16:58.796Z,67.87
2019-03-30T06:17:59.021Z,66.72
2019-03-30T06:18:58.846Z,66.58
2019-03-30T06:19:58.526Z,65.97
2019-03-30T06:20:58.520Z,66.28
2019-03-30T06:21:58.510Z,65.87
2019-03-30T06:22:58.533Z,65.84
2019-03-30T06:23:58.490Z,65.73
2019-03-30T06:24:58.477Z,65.53
2019-03-30T06:25:58.476Z,65.70
2019-03-30T06:26:58.460Z,65.33
2019-03-30T06:27:58.535Z,65.43
2019-03-30T06:28:58.436Z,65.94
2019-03-30T06:29:58.427Z,65.19
2019-03-30T06:30:58.416Z,65.43
2019-03-30T06:31:58.404Z,66.14
2019-03-30T06:32:58.418Z,65.91
2019-03-30T06:33:58.385Z,65.67
2019-03-30T06:34:58.409Z,64.96
2019-03-30T06:35:58.366Z,64.83
2019-03-30T06:36:58.351Z,65.03
2019-03-30T06:37:58.398Z,64.83
2019-03-30T06:38:58.339Z,63.81
2019-03-30T06:39:58.403Z,63.37
2019-03-30T06:40:58.310Z,64.31
2019-03-30T06:41:58.301Z,64.39
2019-03-30T06:42:58.312Z,64.83
2019-03-30T06:43:58.274Z,64.72
2019-03-30T06:44:58.322Z,65.77
2019-03-30T06:45:58.257Z,65.23
2019-03-30T06:46:58.250Z,64.59
2019-03-30T06:47:58.307Z,64.31
2019-03-30T06:48:58.219Z,64.62
2019-03-30T06:49:58.214Z,65.23
2019-03-30T06:50:58.200Z,64.28
2019-03-30T06:51:58.191Z,65.14
2019-03-30T06:52:58.894Z,64.22
2019-03-30T06:53:58.178Z,63.41
2019-03-30T06:54:58.159Z,61.54
2019-03-30T06:55:58.150Z,62.05
2019-03-30T06:56:58.139Z,62.20
2019-03-30T06:57:58.168Z,61.29
2019-03-30T06:58:58.120Z,60.68
2019-03-30T06:59:58.104Z,60.98
2019-03-30T07:00:58.100Z,62.23
2019-03-30T07:01:58.084Z,60.95
2019-03-30T07:02:58.076Z,61.76
2019-03-30T07:03:58.083Z,61.13
2019-03-30T07:04:58.053Z,62.11
2019-03-30T07:05:58.039Z,60.63
2019-03-30T07:06:58.037Z,60.33
2019-03-30T07:07:58.030Z,60.43
2019-03-30T07:08:58.041Z,59.79
2019-03-30T07:09:57.997Z,60.30
2019-03-30T07:10:57.997Z,58.54
2019-03-30T07:11:57.977Z,57.68
2019-03-30T07:12:57.970Z,59.52
2019-03-30T07:13:57.981Z,58.60
2019-03-30T07:14:57.943Z,60.13
2019-03-30T07:15:57.943Z,58.78
2019-03-30T07:16:57.928Z,60.71
2019-03-30T07:17:57.912Z,58.85
2019-03-30T07:18:57.931Z,58.49
2019-03-30T07:19:57.891Z,56.74
2019-03-30T07:20:57.880Z,57.42
2019-03-30T07:21:57.875Z,54.51
2019-03-30T07:23:11.346Z,54.23
2019-03-30T07:23:58.878Z,56.05
2019-03-30T07:24:57.845Z,53.58
2019-03-30T07:25:57.827Z,52.79
2019-03-30T07:26:57.817Z,51.00
2019-03-30T07:27:57.812Z,51.18
2019-03-30T07:28:57.826Z,50.04
2019-03-30T07:29:57.784Z,50.95
2019-03-30T07:30:57.778Z,51.07
2019-03-30T07:31:57.768Z,52.09
2019-03-30T07:32:57.754Z,49.67
2019-03-30T07:33:57.776Z,48.11
2019-03-30T07:34:57.733Z,46.66
2019-03-30T07:35:57.729Z,45.75
2019-03-30T07:36:57.719Z,46.93
2019-03-30T07:37:57.704Z,46.95
2019-03-30T07:38:57.716Z,47.47
2019-03-30T07:39:57.686Z,46.55
2019-03-30T07:40:57.668Z,45.56
2019-03-30T07:41:57.661Z,45.03
2019-03-30T07:42:57.650Z,45.00
2019-03-30T07:43:57.669Z,45.32
2019-03-30T07:44:57.633Z,44.79
2019-03-30T07:45:57.633Z,44.39
2019-03-30T07:46:57.635Z,44.73
2019-03-30T07:47:57.598Z,44.20
2019-03-30T07:48:57.609Z,44.35
2019-03-30T07:49:57.580Z,44.65
2019-03-30T07:50:57.563Z,44.69
2019-03-30T07:51:57.554Z,45.34
2019-03-30T07:52:57.543Z,47.90
2019-03-30T07:53:57.557Z,46.55
2019-03-30T07:54:57.523Z,46.47
2019-03-30T07:56:07.809Z,46.53
2019-03-30T07:57:04.961Z,45.37
2019-03-30T07:57:58.504Z,45.15
2019-03-30T07:58:57.505Z,44.12
2019-03-30T07:59:57.495Z,44.63
2019-03-30T08:00:57.456Z,44.02
2019-03-30T08:01:57.447Z,43.20
2019-03-30T08:02:57.435Z,44.07
2019-03-30T08:03:57.455Z,42.76
2019-03-30T08:04:57.414Z,43.26
2019-03-30T08:05:57.404Z,42.88
2019-03-30T08:06:57.396Z,40.67
2019-03-30T08:07:57.379Z,40.55
2019-03-30T08:08:57.400Z,41.01
2019-03-30T08:09:57.360Z,40.91
2019-03-30T08:10:57.351Z,41.99
2019-03-30T08:11:57.340Z,41.17
2019-03-30T08:12:57.327Z,40.80
2019-03-30T08:13:57.346Z,38.15
2019-03-30T08:14:57.308Z,40.27
2019-03-30T08:15:57.296Z,38.40
2019-03-30T08:16:57.288Z,38.79
2019-03-30T08:17:57.275Z,39.23
2019-03-30T08:18:57.287Z,39.51
2019-03-30T08:19:57.257Z,38.11
2019-03-30T08:20:57.244Z,38.79
2019-03-30T08:21:57.234Z,37.92
2019-03-30T08:22:57.226Z,39.13
2019-03-30T08:23:57.387Z,39.63
2019-03-30T08:24:57.200Z,37.79
2019-03-30T08:25:57.196Z,38.49
2019-03-30T08:26:57.190Z,39.83
2019-03-30T08:27:57.174Z,38.83
2019-03-30T08:28:57.160Z,39.97
2019-03-30T08:29:57.178Z,40.65
2019-03-30T08:30:57.142Z,39.33
2019-03-30T08:31:57.128Z,39.01
2019-03-30T08:32:57.115Z,38.71
2019-03-30T08:33:57.107Z,39.13
2019-03-30T08:34:57.118Z,41.05
2019-03-30T08:35:57.088Z,39.31
2019-03-30T08:36:59.381Z,38.87
2019-03-30T08:37:57.077Z,38.28
2019-03-30T08:38:57.058Z,37.26
2019-03-30T08:39:57.079Z,37.77
2019-03-30T08:40:57.035Z,38.46
2019-03-30T08:41:57.030Z,37.86
2019-03-30T08:42:57.017Z,36.80
2019-03-30T08:43:56.999Z,37.34
2019-03-30T08:44:57.020Z,36.63
2019-03-30T08:45:56.981Z,35.81
2019-03-30T08:46:56.975Z,35.51
2019-03-30T08:47:56.959Z,36.99
2019-03-30T08:48:56.949Z,35.28
2019-03-30T08:49:56.967Z,34.28
2019-03-30T08:50:56.933Z,34.50
2019-03-30T08:51:56.933Z,35.72
2019-03-30T08:52:56.907Z,35.61
2019-03-30T08:53:56.897Z,35.28
2019-03-30T08:54:56.915Z,34.18
2019-03-30T08:55:56.879Z,34.98
2019-03-30T08:56:56.865Z,35.17
2019-03-30T08:57:56.855Z,33.85
2019-03-30T08:58:56.845Z,33.09
2019-03-30T08:59:56.864Z,31.45
2019-03-30T09:00:56.831Z,31.54
2019-03-30T09:01:56.815Z,31.62
2019-03-30T09:02:56.834Z,32.28
2019-03-30T09:03:56.793Z,34.45
2019-03-30T09:04:56.809Z,33.83
2019-03-30T09:05:56.778Z,33.29
2019-03-30T09:06:56.766Z,32.82
2019-03-30T09:07:56.753Z,35.91
2019-03-30T09:08:56.742Z,36.47
2019-03-30T09:09:56.758Z,35.72
2019-03-30T09:10:56.729Z,33.92
2019-03-30T09:11:56.711Z,35.39
2019-03-30T09:12:56.708Z,36.32
2019-03-30T09:13:56.691Z,35.10
2019-03-30T09:14:56.705Z,34.45
2019-03-30T09:15:56.667Z,35.26
2019-03-30T09:16:56.661Z,35.63
2019-03-30T09:17:56.649Z,36.47
2019-03-30T09:18:56.672Z,35.77
2019-03-30T09:19:56.654Z,34.86
2019-03-30T09:20:56.622Z,34.61
2019-03-30T09:21:56.615Z,35.84
2019-03-30T09:22:56.602Z,34.34
2019-03-30T09:24:08.773Z,34.73
2019-03-30T09:24:57.607Z,35.14
2019-03-30T09:25:56.569Z,35.24
2019-03-30T09:26:56.563Z,34.10
2019-03-30T09:27:56.549Z,34.27
2019-03-30T09:28:56.538Z,34.36
2019-03-30T09:29:56.648Z,35.21
2019-03-30T09:30:56.519Z,36.34
2019-03-30T09:31:56.619Z,37.05
2019-03-30T09:32:56.493Z,37.02
2019-03-30T09:33:56.484Z,35.61
2019-03-30T09:34:56.497Z,35.71
2019-03-30T09:35:56.466Z,36.76
2019-03-30T09:36:56.544Z,35.58
2019-03-30T09:37:56.439Z,37.24
2019-03-30T09:38:56.431Z,38.06
2019-03-30T09:39:56.525Z,37.46
2019-03-30T09:40:56.429Z,35.05
2019-03-30T09:41:56.424Z,34.18
2019-03-30T09:42:56.391Z,33.33
2019-03-30T09:43:56.380Z,33.44
2019-03-30T09:44:56.397Z,34.71
2019-03-30T09:45:56.362Z,31.88
2019-03-30T09:46:56.356Z,32.54
2019-03-30T09:47:56.340Z,30.05
2019-03-30T09:48:56.860Z,29.65
2019-03-30T09:49:56.349Z,29.25
2019-03-30T09:50:56.324Z,30.22
2019-03-30T09:51:56.304Z,31.68
2019-03-30T09:52:56.300Z,31.87
2019-03-30T09:53:56.282Z,29.98
2019-03-30T09:54:56.338Z,30.59
2019-03-30T09:55:56.261Z,29.83
2019-03-30T09:56:56.262Z,29.43
2019-03-30T09:57:56.239Z,30.35
2019-03-30T09:58:56.234Z,29.72
2019-03-30T09:59:56.221Z,29.88
2019-03-30T10:00:56.248Z,32.38
2019-03-30T10:01:56.201Z,33.70
2019-03-30T10:02:56.193Z,32.99
2019-03-30T10:03:56.279Z,34.18
2019-03-30T10:04:56.174Z,34.78
2019-03-30T10:05:56.189Z,32.05
2019-03-30T10:06:56.148Z,33.06
2019-03-30T10:07:56.139Z,33.44
2019-03-30T10:08:56.130Z,30.87
2019-03-30T10:09:56.122Z,31.60
2019-03-30T10:10:56.152Z,30.46
2019-03-30T10:11:56.099Z,29.55
2019-03-30T10:12:56.089Z,29.63
2019-03-30T10:13:56.079Z,31.87
2019-03-30T10:14:56.078Z,28.80
2019-03-30T10:15:56.091Z,29.85
2019-03-30T10:16:56.050Z,30.57
2019-03-30T10:17:56.042Z,30.65
2019-03-30T10:18:56.033Z,29.43
2019-03-30T10:20:04.326Z,29.39
2019-03-30T10:20:57.042Z,29.17
2019-03-30T10:21:55.999Z,25.91
2019-03-30T10:22:55.990Z,27.14
2019-03-30T10:23:55.979Z,27.67
2019-03-30T10:24:58.399Z,29.58
2019-03-30T10:25:55.998Z,30.09
2019-03-30T10:26:55.951Z,28.19
2019-03-30T10:27:55.943Z,28.79
2019-03-30T10:28:55.941Z,28.86
2019-03-30T10:29:55.938Z,28.25
2019-03-30T10:30:55.941Z,28.03
2019-03-30T10:31:55.914Z,27.79
2019-03-30T10:32:55.896Z,26.62
2019-03-30T10:33:55.895Z,28.14
2019-03-30T10:34:55.875Z,27.53
2019-03-30T10:35:55.891Z,27.91
2019-03-30T10:36:55.874Z,28.22
2019-03-30T10:37:55.850Z,29.09
2019-03-30T10:38:55.840Z,29.32
2019-03-30T10:39:55.831Z,27.98
2019-03-30T10:40:55.846Z,28.77
2019-03-30T10:41:55.829Z,29.78
2019-03-30T10:42:55.795Z,29.60
2019-03-30T10:43:55.794Z,29.24
2019-03-30T10:44:55.788Z,28.83
2019-03-30T10:45:55.798Z,28.12
2019-03-30T10:46:55.831Z,29.33
2019-03-30T10:47:55.757Z,27.99
2019-03-30T10:48:55.737Z,28.08
2019-03-30T10:49:55.731Z,28.60
2019-03-30T10:50:55.758Z,28.62
2019-03-30T10:51:55.708Z,28.62
2019-03-30T10:52:55.695Z,28.30
2019-03-30T10:53:55.691Z,29.74
2019-03-30T10:54:55.674Z,31.86
2019-03-30T10:55:55.702Z,32.03
2019-03-30T10:56:55.662Z,30.60
2019-03-30T10:57:58.452Z,29.33
2019-03-30T10:58:55.633Z,30.93
2019-03-30T10:59:55.626Z,30.30
2019-03-30T11:00:55.642Z,29.47
2019-03-30T11:01:55.604Z,28.45
2019-03-30T11:02:55.595Z,29.46
2019-03-30T11:03:55.581Z,28.96
2019-03-30T11:04:55.580Z,28.04
2019-03-30T11:05:55.590Z,28.93
2019-03-30T11:06:55.552Z,29.06
2019-03-30T11:07:55.542Z,28.67
2019-03-30T11:08:55.532Z,27.97
2019-03-30T11:09:55.518Z,27.78
2019-03-30T11:10:55.544Z,27.64
2019-03-30T11:11:55.500Z,27.71
2019-03-30T11:12:55.493Z,27.42
2019-03-30T11:13:55.479Z,27.41
2019-03-30T11:14:55.468Z,27.19
2019-03-30T11:15:55.498Z,26.69
2019-03-30T11:16:55.448Z,27.40
2019-03-30T11:17:55.442Z,27.91
2019-03-30T11:18:55.433Z,28.70
2019-03-30T11:19:55.420Z,28.09
2019-03-30T11:20:55.442Z,27.27
2019-03-30T11:21:55.401Z,28.70
2019-03-30T11:22:55.391Z,28.62
2019-03-30T11:23:55.381Z,29.33
2019-03-30T11:25:08.359Z,29.39
2019-03-30T11:25:55.387Z,29.27
2019-03-30T11:26:55.367Z,29.85
2019-03-30T11:27:55.347Z,27.94
2019-03-30T11:28:55.332Z,27.75
2019-03-30T11:29:55.332Z,28.60
2019-03-30T11:30:55.346Z,30.39
2019-03-30T11:31:55.319Z,30.97
2019-03-30T11:32:55.327Z,31.02
2019-03-30T11:33:55.328Z,26.27
2019-03-30T11:34:55.316Z,28.28
2019-03-30T11:35:55.311Z,29.72
2019-03-30T11:36:55.283Z,28.04
2019-03-30T11:37:55.262Z,27.39
2019-03-30T11:38:55.260Z,26.50
2019-03-30T11:39:55.247Z,28.02
2019-03-30T11:40:55.277Z,28.62
2019-03-30T11:41:55.236Z,27.95
2019-03-30T11:42:55.216Z,29.52
2019-03-30T11:43:55.202Z,29.69
2019-03-30T11:44:55.207Z,28.56
2019-03-30T11:45:55.214Z,28.63
2019-03-30T11:46:55.173Z,26.07
2019-03-30T11:47:55.169Z,26.72
2019-03-30T11:48:55.151Z,27.11
2019-03-30T11:49:55.145Z,28.32
2019-03-30T11:50:55.166Z,28.11
2019-03-30T11:51:55.128Z,28.18
2019-03-30T11:52:55.113Z,27.64
2019-03-30T11:53:55.105Z,27.33
2019-03-30T11:54:55.091Z,28.12
2019-03-30T11:55:55.121Z,28.06
2019-03-30T11:56:55.082Z,28.80
2019-03-30T11:57:55.069Z,27.97
2019-03-30T11:58:55.063Z,28.30
2019-03-30T11:59:55.052Z,28.87
2019-03-30T12:00:55.064Z,27.56
2019-03-30T12:01:55.023Z,27.17
2019-03-30T12:02:55.018Z,28.97
2019-03-30T12:03:55.005Z,28.05
2019-03-30T12:04:54.999Z,26.53
2019-03-30T12:05:55.021Z,27.52
2019-03-30T12:06:54.987Z,26.33
2019-03-30T12:07:54.965Z,27.24
2019-03-30T12:08:54.965Z,28.42
2019-03-30T12:09:54.970Z,27.61
2019-03-30T12:10:54.981Z,27.11
2019-03-30T12:11:54.964Z,28.02
2019-03-30T12:12:54.920Z,26.42
2019-03-30T12:13:54.916Z,27.59
2019-03-30T12:14:54.898Z,26.61
2019-03-30T12:15:54.894Z,27.62
2019-03-30T12:16:54.898Z,27.14
2019-03-30T12:17:54.878Z,27.52
2019-03-30T12:18:54.854Z,26.37
2019-03-30T12:19:54.861Z,26.27
2019-03-30T12:20:54.839Z,25.76
2019-03-30T12:21:54.846Z,26.76
2019-03-30T12:22:54.816Z,27.95
2019-03-30T12:23:54.813Z,28.02
2019-03-30T12:24:54.799Z,24.95
2019-03-30T12:25:54.779Z,24.94
2019-03-30T12:26:55.614Z,26.81
2019-03-30T12:27:54.769Z,26.58
2019-03-30T12:28:54.753Z,25.05
2019-03-30T12:29:54.748Z,24.57
2019-03-30T12:30:54.743Z,24.46
2019-03-30T12:31:54.754Z,24.98
2019-03-30T12:32:54.717Z,24.67
2019-03-30T12:33:54.703Z,24.71
2019-03-30T12:34:54.786Z,25.12
2019-03-30T12:35:54.681Z,23.93
2019-03-30T12:36:55.963Z,26.42
2019-03-30T12:37:54.706Z,26.13
2019-03-30T12:38:54.698Z,26.93
2019-03-30T12:39:57.989Z,24.72
2019-03-30T12:40:54.635Z,25.80
2019-03-30T12:41:54.660Z,24.60
2019-03-30T12:42:54.617Z,25.61
2019-03-30T12:43:54.601Z,25.35
2019-03-30T12:44:54.602Z,25.74
2019-03-30T12:45:54.588Z,27.52
2019-03-30T12:46:54.619Z,24.54
2019-03-30T12:47:54.657Z,26.03
2019-03-30T12:48:54.555Z,26.70
2019-03-30T12:49:54.571Z,25.31
2019-03-30T12:50:54.545Z,25.86
2019-03-30T12:51:54.552Z,24.74